sensor_id;sensor_type;location;lat;lon;timestamp;P1;durP1;ratioP1;P2;durP2;ratioP2
5912;SDS011;2982;42.684;23.356;2023-04-15T00:00:02;2.13;;;1.50;;
5912;SDS011;2982;42.684;23.356;2023-04-15T00:02:27;1.75;;;1.23;;
5912;SDS011;2982;42.684;23.356;2023-04-15T00:04:52;1.50;;;1.40;;
5912;SDS011;2982;42.684;23.356;2023-04-15T00:07:18;4.27;;;1.37;;
5912;SDS011;2982;42.684;23.356;2023-04-15T00:09:43;3.80;;;1.10;;
5912;SDS011;2982;42.684;23.356;2023-04-15T00:12:09;1.90;;;1.03;;
5912;SDS011;2982;42.684;23.356;2023-04-15T00:14:35;3.13;;;2.28;;
5912;SDS011;2982;42.684;23.356;2023-04-15T00:17:00;2.30;;;1.90;;
5912;SDS011;2982;42.684;23.356;2023-04-15T00:19:26;3.03;;;1.95;;
5912;SDS011;2982;42.684;23.356;2023-04-15T00:21:51;4.53;;;2.45;;
5912;SDS011;2982;42.684;23.356;2023-04-15T00:24:16;4.85;;;2.80;;
5912;SDS011;2982;42.684;23.356;2023-04-15T00:26:41;2.47;;;2.28;;
5912;SDS011;2982;42.684;23.356;2023-04-15T00:29:07;4.03;;;2.72;;
5912;SDS011;2982;42.684;23.356;2023-04-15T00:31:32;3.53;;;2.95;;
5912;SDS011;2982;42.684;23.356;2023-04-15T00:33:57;3.45;;;2.88;;
5912;SDS011;2982;42.684;23.356;2023-04-15T00:36:22;2.90;;;2.60;;
5912;SDS011;2982;42.684;23.356;2023-04-15T00:38:48;4.50;;;3.25;;
5912;SDS011;2982;42.684;23.356;2023-04-15T00:41:13;5.03;;;3.60;;
5912;SDS011;2982;42.684;23.356;2023-04-15T00:43:38;2.83;;;2.63;;
5912;SDS011;2982;42.684;23.356;2023-04-15T00:46:04;4.45;;;3.05;;
5912;SDS011;2982;42.684;23.356;2023-04-15T00:48:30;3.38;;;3.08;;
5912;SDS011;2982;42.684;23.356;2023-04-15T00:50:56;10.38;;;3.05;;
5912;SDS011;2982;42.684;23.356;2023-04-15T00:53:21;2.58;;;2.15;;
5912;SDS011;2982;42.684;23.356;2023-04-15T00:55:47;5.40;;;1.90;;
5912;SDS011;2982;42.684;23.356;2023-04-15T00:58:13;4.03;;;1.58;;
5912;SDS011;2982;42.684;23.356;2023-04-15T01:00:38;2.10;;;1.90;;
5912;SDS011;2982;42.684;23.356;2023-04-15T01:03:04;3.15;;;2.08;;
5912;SDS011;2982;42.684;23.356;2023-04-15T01:05:29;2.88;;;2.05;;
5912;SDS011;2982;42.684;23.356;2023-04-15T01:07:55;1.95;;;1.65;;
5912;SDS011;2982;42.684;23.356;2023-04-15T01:10:20;4.00;;;1.90;;
5912;SDS011;2982;42.684;23.356;2023-04-15T01:12:45;7.03;;;2.30;;
5912;SDS011;2982;42.684;23.356;2023-04-15T01:15:11;1.90;;;1.80;;
5912;SDS011;2982;42.684;23.356;2023-04-15T01:17:36;6.20;;;2.10;;
5912;SDS011;2982;42.684;23.356;2023-04-15T01:20:02;3.42;;;2.28;;
5912;SDS011;2982;42.684;23.356;2023-04-15T01:22:27;3.07;;;2.87;;
5912;SDS011;2982;42.684;23.356;2023-04-15T01:25:05;2.60;;;2.38;;
5912;SDS011;2982;42.684;23.356;2023-04-15T01:27:33;4.30;;;2.58;;
5912;SDS011;2982;42.684;23.356;2023-04-15T01:29:58;2.70;;;2.30;;
5912;SDS011;2982;42.684;23.356;2023-04-15T01:32:24;2.92;;;2.63;;
5912;SDS011;2982;42.684;23.356;2023-04-15T01:34:49;3.65;;;2.80;;
5912;SDS011;2982;42.684;23.356;2023-04-15T01:37:14;5.53;;;3.15;;
5912;SDS011;2982;42.684;23.356;2023-04-15T01:39:40;3.00;;;2.80;;
5912;SDS011;2982;42.684;23.356;2023-04-15T01:42:05;3.90;;;2.80;;
5912;SDS011;2982;42.684;23.356;2023-04-15T01:44:30;2.93;;;2.63;;
5912;SDS011;2982;42.684;23.356;2023-04-15T01:46:55;3.33;;;3.03;;
5912;SDS011;2982;42.684;23.356;2023-04-15T01:49:21;2.55;;;2.35;;
5912;SDS011;2982;42.684;23.356;2023-04-15T01:51:46;4.17;;;2.50;;
5912;SDS011;2982;42.684;23.356;2023-04-15T01:54:11;3.17;;;2.87;;
5912;SDS011;2982;42.684;23.356;2023-04-15T01:56:37;3.58;;;2.80;;
5912;SDS011;2982;42.684;23.356;2023-04-15T01:59:02;3.50;;;2.97;;
5912;SDS011;2982;42.684;23.356;2023-04-15T02:01:27;3.10;;;2.90;;
5912;SDS011;2982;42.684;23.356;2023-04-15T02:03:52;3.10;;;2.80;;
5912;SDS011;2982;42.684;23.356;2023-04-15T02:06:18;5.55;;;2.90;;
5912;SDS011;2982;42.684;23.356;2023-04-15T02:08:43;2.93;;;2.57;;
5912;SDS011;2982;42.684;23.356;2023-04-15T02:11:08;4.53;;;3.10;;
5912;SDS011;2982;42.684;23.356;2023-04-15T02:13:33;3.47;;;2.53;;
5912;SDS011;2982;42.684;23.356;2023-04-15T02:15:59;3.20;;;2.53;;
5912;SDS011;2982;42.684;23.356;2023-04-15T02:18:24;3.10;;;2.50;;
5912;SDS011;2982;42.684;23.356;2023-04-15T02:20:50;5.63;;;2.80;;
5912;SDS011;2982;42.684;23.356;2023-04-15T02:23:16;6.20;;;2.97;;
5912;SDS011;2982;42.684;23.356;2023-04-15T02:25:41;3.60;;;3.00;;
5912;SDS011;2982;42.684;23.356;2023-04-15T02:28:06;3.47;;;2.47;;
5912;SDS011;2982;42.684;23.356;2023-04-15T02:30:33;4.73;;;2.40;;
5912;SDS011;2982;42.684;23.356;2023-04-15T02:33:01;5.63;;;2.97;;
5912;SDS011;2982;42.684;23.356;2023-04-15T02:35:27;1.53;;;1.43;;
5912;SDS011;2982;42.684;23.356;2023-04-15T02:37:53;4.00;;;1.87;;
5912;SDS011;2982;42.684;23.356;2023-04-15T02:40:18;3.70;;;2.80;;
5912;SDS011;2982;42.684;23.356;2023-04-15T02:42:43;3.87;;;2.90;;
5912;SDS011;2982;42.684;23.356;2023-04-15T02:45:09;3.00;;;2.70;;
5912;SDS011;2982;42.684;23.356;2023-04-15T02:47:35;5.27;;;3.53;;
5912;SDS011;2982;42.684;23.356;2023-04-15T02:50:03;3.77;;;2.77;;
5912;SDS011;2982;42.684;23.356;2023-04-15T02:52:28;7.07;;;4.00;;
5912;SDS011;2982;42.684;23.356;2023-04-15T02:54:54;4.17;;;3.77;;
5912;SDS011;2982;42.684;23.356;2023-04-15T02:57:19;5.83;;;4.57;;
5912;SDS011;2982;42.684;23.356;2023-04-15T02:59:44;7.57;;;5.07;;
5912;SDS011;2982;42.684;23.356;2023-04-15T03:02:09;6.03;;;4.63;;
5912;SDS011;2982;42.684;23.356;2023-04-15T03:04:35;4.57;;;4.03;;
5912;SDS011;2982;42.684;23.356;2023-04-15T03:07:00;6.60;;;4.10;;
5912;SDS011;2982;42.684;23.356;2023-04-15T03:09:25;4.43;;;3.60;;
5912;SDS011;2982;42.684;23.356;2023-04-15T03:11:51;3.83;;;3.47;;
5912;SDS011;2982;42.684;23.356;2023-04-15T03:14:16;3.30;;;3.00;;
5912;SDS011;2982;42.684;23.356;2023-04-15T03:16:41;3.77;;;3.20;;
5912;SDS011;2982;42.684;23.356;2023-04-15T03:19:06;3.73;;;3.30;;
5912;SDS011;2982;42.684;23.356;2023-04-15T03:21:32;3.40;;;2.93;;
5912;SDS011;2982;42.684;23.356;2023-04-15T03:23:57;3.70;;;3.40;;
5912;SDS011;2982;42.684;23.356;2023-04-15T03:26:23;7.10;;;3.63;;
5912;SDS011;2982;42.684;23.356;2023-04-15T03:28:51;4.77;;;3.60;;
5912;SDS011;2982;42.684;23.356;2023-04-15T03:31:16;3.83;;;3.27;;
5912;SDS011;2982;42.684;23.356;2023-04-15T03:33:41;3.27;;;2.97;;
5912;SDS011;2982;42.684;23.356;2023-04-15T03:36:06;6.43;;;3.43;;
5912;SDS011;2982;42.684;23.356;2023-04-15T03:38:32;3.17;;;2.87;;
5912;SDS011;2982;42.684;23.356;2023-04-15T03:40:57;3.43;;;3.10;;
5912;SDS011;2982;42.684;23.356;2023-04-15T03:43:22;3.57;;;3.27;;
5912;SDS011;2982;42.684;23.356;2023-04-15T03:45:48;2.97;;;2.77;;
5912;SDS011;2982;42.684;23.356;2023-04-15T03:48:13;6.67;;;4.13;;
5912;SDS011;2982;42.684;23.356;2023-04-15T03:50:38;4.47;;;3.50;;
5912;SDS011;2982;42.684;23.356;2023-04-15T03:53:03;4.90;;;3.23;;
5912;SDS011;2982;42.684;23.356;2023-04-15T03:55:29;4.30;;;3.63;;
5912;SDS011;2982;42.684;23.356;2023-04-15T03:57:54;3.47;;;3.17;;
5912;SDS011;2982;42.684;23.356;2023-04-15T04:00:19;7.00;;;3.57;;
5912;SDS011;2982;42.684;23.356;2023-04-15T04:02:45;5.03;;;4.33;;
5912;SDS011;2982;42.684;23.356;2023-04-15T04:05:10;5.67;;;3.63;;
5912;SDS011;2982;42.684;23.356;2023-04-15T04:07:35;6.07;;;3.00;;
5912;SDS011;2982;42.684;23.356;2023-04-15T04:10:01;7.70;;;3.83;;
5912;SDS011;2982;42.684;23.356;2023-04-15T04:12:27;7.23;;;3.63;;
5912;SDS011;2982;42.684;23.356;2023-04-15T04:14:52;3.33;;;3.10;;
5912;SDS011;2982;42.684;23.356;2023-04-15T04:17:17;6.17;;;3.80;;
5912;SDS011;2982;42.684;23.356;2023-04-15T04:19:42;4.77;;;3.47;;
5912;SDS011;2982;42.684;23.356;2023-04-15T04:22:08;3.80;;;3.50;;
5912;SDS011;2982;42.684;23.356;2023-04-15T04:24:33;5.20;;;3.93;;
5912;SDS011;2982;42.684;23.356;2023-04-15T04:26:58;5.03;;;3.43;;
5912;SDS011;2982;42.684;23.356;2023-04-15T04:29:24;7.63;;;3.80;;
5912;SDS011;2982;42.684;23.356;2023-04-15T04:31:49;4.80;;;3.23;;
5912;SDS011;2982;42.684;23.356;2023-04-15T04:34:14;4.28;;;3.20;;
5912;SDS011;2982;42.684;23.356;2023-04-15T04:36:40;3.05;;;2.85;;
5912;SDS011;2982;42.684;23.356;2023-04-15T04:39:05;3.53;;;2.85;;
5912;SDS011;2982;42.684;23.356;2023-04-15T04:41:30;6.65;;;3.88;;
5912;SDS011;2982;42.684;23.356;2023-04-15T04:43:56;3.40;;;3.15;;
5912;SDS011;2982;42.684;23.356;2023-04-15T04:46:21;3.67;;;2.97;;
5912;SDS011;2982;42.684;23.356;2023-04-15T04:48:46;6.65;;;4.70;;
5912;SDS011;2982;42.684;23.356;2023-04-15T04:51:11;4.57;;;4.13;;
5912;SDS011;2982;42.684;23.356;2023-04-15T04:53:37;4.47;;;3.47;;
5912;SDS011;2982;42.684;23.356;2023-04-15T04:56:02;4.35;;;3.88;;
5912;SDS011;2982;42.684;23.356;2023-04-15T04:58:28;10.27;;;4.90;;
5912;SDS011;2982;42.684;23.356;2023-04-15T05:00:53;7.30;;;5.40;;
5912;SDS011;2982;42.684;23.356;2023-04-15T05:03:19;8.05;;;6.00;;
5912;SDS011;2982;42.684;23.356;2023-04-15T05:05:45;9.77;;;4.70;;
5912;SDS011;2982;42.684;23.356;2023-04-15T05:08:10;6.30;;;5.70;;
5912;SDS011;2982;42.684;23.356;2023-04-15T05:10:35;10.48;;;4.85;;
5912;SDS011;2982;42.684;23.356;2023-04-15T05:13:01;5.40;;;4.90;;
5912;SDS011;2982;42.684;23.356;2023-04-15T05:15:26;4.68;;;4.35;;
5912;SDS011;2982;42.684;23.356;2023-04-15T05:17:51;5.10;;;4.70;;
5912;SDS011;2982;42.684;23.356;2023-04-15T05:20:16;6.45;;;4.10;;
5912;SDS011;2982;42.684;23.356;2023-04-15T05:22:42;6.28;;;4.15;;
5912;SDS011;2982;42.684;23.356;2023-04-15T05:25:07;8.93;;;4.90;;
5912;SDS011;2982;42.684;23.356;2023-04-15T05:27:33;5.13;;;4.63;;
5912;SDS011;2982;42.684;23.356;2023-04-15T05:29:58;5.25;;;4.22;;
5912;SDS011;2982;42.684;23.356;2023-04-15T05:32:24;7.97;;;4.90;;
5912;SDS011;2982;42.684;23.356;2023-04-15T05:35:00;5.28;;;4.78;;
5912;SDS011;2982;42.684;23.356;2023-04-15T05:37:37;4.60;;;4.30;;
5912;SDS011;2982;42.684;23.356;2023-04-15T05:40:03;4.43;;;4.07;;
5912;SDS011;2982;42.684;23.356;2023-04-15T05:42:28;5.78;;;3.80;;
5912;SDS011;2982;42.684;23.356;2023-04-15T05:44:54;5.68;;;4.32;;
5912;SDS011;2982;42.684;23.356;2023-04-15T05:47:19;3.58;;;3.28;;
5912;SDS011;2982;42.684;23.356;2023-04-15T05:49:44;4.80;;;3.85;;
5912;SDS011;2982;42.684;23.356;2023-04-15T05:52:09;4.13;;;3.58;;
5912;SDS011;2982;42.684;23.356;2023-04-15T05:54:35;3.97;;;3.58;;
5912;SDS011;2982;42.684;23.356;2023-04-15T05:57:00;4.53;;;4.10;;
5912;SDS011;2982;42.684;23.356;2023-04-15T05:59:25;4.95;;;4.47;;
5912;SDS011;2982;42.684;23.356;2023-04-15T06:01:51;5.20;;;4.70;;
5912;SDS011;2982;42.684;23.356;2023-04-15T06:04:16;4.40;;;4.10;;
5912;SDS011;2982;42.684;23.356;2023-04-15T06:06:41;4.05;;;3.75;;
5912;SDS011;2982;42.684;23.356;2023-04-15T06:09:07;4.93;;;4.30;;
5912;SDS011;2982;42.684;23.356;2023-04-15T06:11:32;6.03;;;3.50;;
5912;SDS011;2982;42.684;23.356;2023-04-15T06:13:57;3.65;;;3.33;;
5912;SDS011;2982;42.684;23.356;2023-04-15T06:16:22;5.20;;;3.75;;
5912;SDS011;2982;42.684;23.356;2023-04-15T06:18:48;4.40;;;3.40;;
5912;SDS011;2982;42.684;23.356;2023-04-15T06:21:13;4.28;;;3.97;;
5912;SDS011;2982;42.684;23.356;2023-04-15T06:23:39;3.63;;;3.33;;
5912;SDS011;2982;42.684;23.356;2023-04-15T06:26:04;4.55;;;3.40;;
5912;SDS011;2982;42.684;23.356;2023-04-15T06:28:30;4.88;;;3.35;;
5912;SDS011;2982;42.684;23.356;2023-04-15T06:30:55;3.83;;;3.50;;
5912;SDS011;2982;42.684;23.356;2023-04-15T06:33:20;4.30;;;3.58;;
5912;SDS011;2982;42.684;23.356;2023-04-15T06:35:46;4.40;;;3.40;;
5912;SDS011;2982;42.684;23.356;2023-04-15T06:38:11;7.03;;;3.50;;
5912;SDS011;2982;42.684;23.356;2023-04-15T06:40:36;5.80;;;3.75;;
5912;SDS011;2982;42.684;23.356;2023-04-15T06:43:01;4.70;;;3.42;;
5912;SDS011;2982;42.684;23.356;2023-04-15T06:45:27;7.60;;;3.58;;
5912;SDS011;2982;42.684;23.356;2023-04-15T06:47:52;4.97;;;3.53;;
5912;SDS011;2982;42.684;23.356;2023-04-15T06:50:17;4.65;;;3.03;;
5912;SDS011;2982;42.684;23.356;2023-04-15T06:52:43;4.15;;;2.97;;
5912;SDS011;2982;42.684;23.356;2023-04-15T06:55:08;4.18;;;3.40;;
5912;SDS011;2982;42.684;23.356;2023-04-15T06:57:33;4.63;;;2.80;;
5912;SDS011;2982;42.684;23.356;2023-04-15T06:59:59;4.05;;;2.95;;
5912;SDS011;2982;42.684;23.356;2023-04-15T07:02:24;4.22;;;3.42;;
5912;SDS011;2982;42.684;23.356;2023-04-15T07:04:49;3.15;;;2.95;;
5912;SDS011;2982;42.684;23.356;2023-04-15T07:07:15;4.00;;;3.08;;
5912;SDS011;2982;42.684;23.356;2023-04-15T07:09:40;3.42;;;3.13;;
5912;SDS011;2982;42.684;23.356;2023-04-15T07:12:05;4.38;;;3.50;;
5912;SDS011;2982;42.684;23.356;2023-04-15T07:14:30;5.38;;;3.08;;
5912;SDS011;2982;42.684;23.356;2023-04-15T07:16:56;5.72;;;3.47;;
5912;SDS011;2982;42.684;23.356;2023-04-15T07:19:21;3.25;;;2.53;;
5912;SDS011;2982;42.684;23.356;2023-04-15T07:21:46;6.80;;;3.42;;
5912;SDS011;2982;42.684;23.356;2023-04-15T07:24:12;4.57;;;3.03;;
5912;SDS011;2982;42.684;23.356;2023-04-15T07:26:37;3.38;;;2.85;;
5912;SDS011;2982;42.684;23.356;2023-04-15T07:29:02;8.82;;;2.90;;
5912;SDS011;2982;42.684;23.356;2023-04-15T07:31:27;10.07;;;3.13;;
5912;SDS011;2982;42.684;23.356;2023-04-15T07:33:53;3.03;;;2.65;;
5912;SDS011;2982;42.684;23.356;2023-04-15T07:36:18;4.93;;;3.83;;
5912;SDS011;2982;42.684;23.356;2023-04-15T07:38:43;3.55;;;3.15;;
5912;SDS011;2982;42.684;23.356;2023-04-15T07:41:09;4.72;;;3.42;;
5912;SDS011;2982;42.684;23.356;2023-04-15T07:43:34;4.25;;;3.40;;
5912;SDS011;2982;42.684;23.356;2023-04-15T07:45:59;3.75;;;3.28;;
5912;SDS011;2982;42.684;23.356;2023-04-15T07:48:25;10.85;;;3.45;;
5912;SDS011;2982;42.684;23.356;2023-04-15T07:50:50;6.63;;;4.03;;
5912;SDS011;2982;42.684;23.356;2023-04-15T07:53:15;6.43;;;4.13;;
5912;SDS011;2982;42.684;23.356;2023-04-15T07:55:40;4.90;;;3.70;;
5912;SDS011;2982;42.684;23.356;2023-04-15T07:58:06;5.90;;;2.72;;
5912;SDS011;2982;42.684;23.356;2023-04-15T08:00:31;6.30;;;3.15;;
5912;SDS011;2982;42.684;23.356;2023-04-15T08:02:56;3.85;;;3.50;;
5912;SDS011;2982;42.684;23.356;2023-04-15T08:05:21;3.95;;;2.78;;
5912;SDS011;2982;42.684;23.356;2023-04-15T08:07:47;4.55;;;3.03;;
5912;SDS011;2982;42.684;23.356;2023-04-15T08:10:13;9.25;;;2.97;;
5912;SDS011;2982;42.684;23.356;2023-04-15T08:12:38;3.85;;;3.38;;
5912;SDS011;2982;42.684;23.356;2023-04-15T08:15:11;4.88;;;3.42;;
5912;SDS011;2982;42.684;23.356;2023-04-15T08:17:37;3.22;;;2.92;;
5912;SDS011;2982;42.684;23.356;2023-04-15T08:20:10;4.28;;;2.95;;
5912;SDS011;2982;42.684;23.356;2023-04-15T08:22:45;3.63;;;2.50;;
5912;SDS011;2982;42.684;23.356;2023-04-15T08:25:11;5.30;;;2.90;;
5912;SDS011;2982;42.684;23.356;2023-04-15T08:27:36;2.95;;;2.65;;
5912;SDS011;2982;42.684;23.356;2023-04-15T08:30:01;3.75;;;2.63;;
5912;SDS011;2982;42.684;23.356;2023-04-15T08:32:27;4.90;;;2.85;;
5912;SDS011;2982;42.684;23.356;2023-04-15T08:34:52;4.70;;;3.10;;
5912;SDS011;2982;42.684;23.356;2023-04-15T08:37:18;3.65;;;3.33;;
5912;SDS011;2982;42.684;23.356;2023-04-15T08:39:43;4.88;;;3.40;;
5912;SDS011;2982;42.684;23.356;2023-04-15T08:42:12;4.80;;;2.80;;
5912;SDS011;2982;42.684;23.356;2023-04-15T08:44:42;5.10;;;2.83;;
5912;SDS011;2982;42.684;23.356;2023-04-15T08:47:07;5.88;;;3.72;;
5912;SDS011;2982;42.684;23.356;2023-04-15T08:49:33;4.47;;;3.38;;
5912;SDS011;2982;42.684;23.356;2023-04-15T08:52:02;2.55;;;2.35;;
5912;SDS011;2982;42.684;23.356;2023-04-15T08:54:28;3.30;;;3.00;;
5912;SDS011;2982;42.684;23.356;2023-04-15T08:56:54;3.15;;;2.70;;
5912;SDS011;2982;42.684;23.356;2023-04-15T08:59:21;5.35;;;2.00;;
5912;SDS011;2982;42.684;23.356;2023-04-15T09:01:50;3.30;;;2.28;;
5912;SDS011;2982;42.684;23.356;2023-04-15T09:04:16;2.42;;;2.22;;
5912;SDS011;2982;42.684;23.356;2023-04-15T09:06:42;6.20;;;2.20;;
5912;SDS011;2982;42.684;23.356;2023-04-15T09:09:07;2.15;;;1.60;;
5912;SDS011;2982;42.684;23.356;2023-04-15T09:11:33;3.28;;;1.13;;
5912;SDS011;2982;42.684;23.356;2023-04-15T09:13:59;3.10;;;1.40;;
5912;SDS011;2982;42.684;23.356;2023-04-15T09:16:24;1.50;;;1.30;;
5912;SDS011;2982;42.684;23.356;2023-04-15T09:18:49;3.05;;;1.67;;
5912;SDS011;2982;42.684;23.356;2023-04-15T09:21:15;1.77;;;1.67;;
5912;SDS011;2982;42.684;23.356;2023-04-15T09:26:19;7.75;;;1.73;;
5912;SDS011;2982;42.684;23.356;2023-04-15T09:28:54;1.85;;;1.45;;
5912;SDS011;2982;42.684;23.356;2023-04-15T09:31:28;2.25;;;1.50;;
5912;SDS011;2982;42.684;23.356;2023-04-15T09:33:54;2.60;;;1.52;;
5912;SDS011;2982;42.684;23.356;2023-04-15T09:36:20;1.90;;;1.55;;
5912;SDS011;2982;42.684;23.356;2023-04-15T09:38:57;2.85;;;1.08;;
5912;SDS011;2982;42.684;23.356;2023-04-15T09:41:24;2.58;;;1.63;;
5912;SDS011;2982;42.684;23.356;2023-04-15T09:43:50;2.88;;;1.30;;
5912;SDS011;2982;42.684;23.356;2023-04-15T09:46:16;2.97;;;1.63;;
5912;SDS011;2982;42.684;23.356;2023-04-15T09:48:41;5.97;;;1.40;;
5912;SDS011;2982;42.684;23.356;2023-04-15T09:51:07;3.20;;;1.42;;
5912;SDS011;2982;42.684;23.356;2023-04-15T09:53:33;3.65;;;1.70;;
5912;SDS011;2982;42.684;23.356;2023-04-15T09:56:00;3.15;;;1.33;;
5912;SDS011;2982;42.684;23.356;2023-04-15T09:58:26;2.17;;;1.10;;
5912;SDS011;2982;42.684;23.356;2023-04-15T10:00:53;1.65;;;1.00;;
5912;SDS011;2982;42.684;23.356;2023-04-15T10:03:26;1.48;;;1.15;;
5912;SDS011;2982;42.684;23.356;2023-04-15T10:05:53;2.35;;;1.60;;
5912;SDS011;2982;42.684;23.356;2023-04-15T10:08:21;3.08;;;1.58;;
5912;SDS011;2982;42.684;23.356;2023-04-15T10:10:47;1.42;;;0.82;;
5912;SDS011;2982;42.684;23.356;2023-04-15T10:13:13;0.98;;;0.73;;
5912;SDS011;2982;42.684;23.356;2023-04-15T10:15:43;1.70;;;0.80;;
5912;SDS011;2982;42.684;23.356;2023-04-15T10:18:09;0.73;;;0.70;;
5912;SDS011;2982;42.684;23.356;2023-04-15T10:20:35;1.55;;;0.90;;
5912;SDS011;2982;42.684;23.356;2023-04-15T10:23:01;1.15;;;0.90;;
5912;SDS011;2982;42.684;23.356;2023-04-15T10:25:27;1.42;;;0.90;;
5912;SDS011;2982;42.684;23.356;2023-04-15T10:27:53;2.15;;;0.80;;
5912;SDS011;2982;42.684;23.356;2023-04-15T10:30:20;1.48;;;0.65;;
5912;SDS011;2982;42.684;23.356;2023-04-15T10:32:46;1.60;;;0.55;;
5912;SDS011;2982;42.684;23.356;2023-04-15T10:35:12;1.02;;;0.45;;
5912;SDS011;2982;42.684;23.356;2023-04-15T10:37:38;0.68;;;0.47;;
5912;SDS011;2982;42.684;23.356;2023-04-15T10:43:02;3.55;;;0.68;;
5912;SDS011;2982;42.684;23.356;2023-04-15T10:45:28;1.85;;;0.60;;
5912;SDS011;2982;42.684;23.356;2023-04-15T10:47:57;1.85;;;0.43;;
5912;SDS011;2982;42.684;23.356;2023-04-15T10:50:25;1.30;;;0.50;;
5912;SDS011;2982;42.684;23.356;2023-04-15T10:52:51;1.40;;;0.43;;
5912;SDS011;2982;42.684;23.356;2023-04-15T10:55:20;1.33;;;0.88;;
5912;SDS011;2982;42.684;23.356;2023-04-15T10:57:53;2.13;;;0.73;;
5912;SDS011;2982;42.684;23.356;2023-04-15T11:00:24;2.05;;;0.93;;
5912;SDS011;2982;42.684;23.356;2023-04-15T11:02:57;2.80;;;1.05;;
5912;SDS011;2982;42.684;23.356;2023-04-15T11:08:03;1.88;;;0.80;;
5912;SDS011;2982;42.684;23.356;2023-04-15T11:12:58;0.98;;;0.90;;
5912;SDS011;2982;42.684;23.356;2023-04-15T11:15:42;2.92;;;1.02;;
5912;SDS011;2982;42.684;23.356;2023-04-15T11:20:34;4.07;;;0.85;;
5912;SDS011;2982;42.684;23.356;2023-04-15T11:23:00;0.85;;;0.65;;
5912;SDS011;2982;42.684;23.356;2023-04-15T11:25:26;1.80;;;1.02;;
5912;SDS011;2982;42.684;23.356;2023-04-15T11:27:55;1.15;;;0.80;;
5912;SDS011;2982;42.684;23.356;2023-04-15T11:30:22;2.63;;;0.95;;
5912;SDS011;2982;42.684;23.356;2023-04-15T11:32:49;0.75;;;0.70;;
5912;SDS011;2982;42.684;23.356;2023-04-15T11:35:18;4.57;;;0.95;;
5912;SDS011;2982;42.684;23.356;2023-04-15T11:37:44;2.20;;;0.90;;
5912;SDS011;2982;42.684;23.356;2023-04-15T11:40:10;0.90;;;0.80;;
5912;SDS011;2982;42.684;23.356;2023-04-15T11:42:36;1.73;;;0.85;;
5912;SDS011;2982;42.684;23.356;2023-04-15T11:45:05;0.65;;;0.60;;
5912;SDS011;2982;42.684;23.356;2023-04-15T11:47:40;0.57;;;0.40;;
5912;SDS011;2982;42.684;23.356;2023-04-15T11:50:21;1.40;;;0.40;;
5912;SDS011;2982;42.684;23.356;2023-04-15T11:52:57;0.60;;;0.38;;
5912;SDS011;2982;42.684;23.356;2023-04-15T11:55:24;0.40;;;0.38;;
5912;SDS011;2982;42.684;23.356;2023-04-15T11:57:51;1.55;;;0.43;;
5912;SDS011;2982;42.684;23.356;2023-04-15T12:00:30;1.27;;;0.30;;
5912;SDS011;2982;42.684;23.356;2023-04-15T12:03:12;1.88;;;0.88;;
5912;SDS011;2982;42.684;23.356;2023-04-15T12:16:54;0.60;;;0.52;;
5912;SDS011;2982;42.684;23.356;2023-04-15T12:19:22;1.85;;;0.52;;
5912;SDS011;2982;42.684;23.356;2023-04-15T12:21:52;1.95;;;0.40;;
5912;SDS011;2982;42.684;23.356;2023-04-15T12:24:21;0.55;;;0.50;;
5912;SDS011;2982;42.684;23.356;2023-04-15T12:26:50;0.50;;;0.40;;
5912;SDS011;2982;42.684;23.356;2023-04-15T12:29:17;3.50;;;0.40;;
5912;SDS011;2982;42.684;23.356;2023-04-15T12:31:50;3.72;;;0.40;;
5912;SDS011;2982;42.684;23.356;2023-04-15T12:34:24;4.55;;;0.50;;
5912;SDS011;2982;42.684;23.356;2023-04-15T12:36:52;1.17;;;0.47;;
5912;SDS011;2982;42.684;23.356;2023-04-15T12:39:20;0.93;;;0.73;;
5912;SDS011;2982;42.684;23.356;2023-04-15T12:41:46;2.05;;;0.50;;
5912;SDS011;2982;42.684;23.356;2023-04-15T12:44:12;1.85;;;0.50;;
5912;SDS011;2982;42.684;23.356;2023-04-15T12:46:37;0.65;;;0.50;;
5912;SDS011;2982;42.684;23.356;2023-04-15T12:49:02;0.98;;;0.40;;
5912;SDS011;2982;42.684;23.356;2023-04-15T12:51:27;1.50;;;0.50;;
5912;SDS011;2982;42.684;23.356;2023-04-15T12:53:53;1.63;;;0.57;;
5912;SDS011;2982;42.684;23.356;2023-04-15T12:56:18;0.98;;;0.40;;
5912;SDS011;2982;42.684;23.356;2023-04-15T12:58:43;1.33;;;0.73;;
5912;SDS011;2982;42.684;23.356;2023-04-15T13:01:09;1.48;;;0.68;;
5912;SDS011;2982;42.684;23.356;2023-04-15T13:03:34;1.63;;;0.68;;
5912;SDS011;2982;42.684;23.356;2023-04-15T13:06:00;0.88;;;0.40;;
5912;SDS011;2982;42.684;23.356;2023-04-15T13:08:25;0.90;;;0.40;;
5912;SDS011;2982;42.684;23.356;2023-04-15T13:10:51;2.08;;;0.60;;
5912;SDS011;2982;42.684;23.356;2023-04-15T13:13:16;1.88;;;0.50;;
5912;SDS011;2982;42.684;23.356;2023-04-15T13:15:41;0.90;;;0.60;;
5912;SDS011;2982;42.684;23.356;2023-04-15T13:18:07;1.48;;;0.60;;
5912;SDS011;2982;42.684;23.356;2023-04-15T13:20:32;0.60;;;0.60;;
5912;SDS011;2982;42.684;23.356;2023-04-15T13:22:57;1.08;;;0.50;;
5912;SDS011;2982;42.684;23.356;2023-04-15T13:25:23;1.52;;;0.40;;
5912;SDS011;2982;42.684;23.356;2023-04-15T13:27:49;2.92;;;0.50;;
5912;SDS011;2982;42.684;23.356;2023-04-15T13:30:14;1.00;;;0.60;;
5912;SDS011;2982;42.684;23.356;2023-04-15T13:32:40;1.05;;;0.50;;
5912;SDS011;2982;42.684;23.356;2023-04-15T13:35:05;2.08;;;0.43;;
5912;SDS011;2982;42.684;23.356;2023-04-15T13:37:30;0.55;;;0.47;;
5912;SDS011;2982;42.684;23.356;2023-04-15T13:39:56;0.73;;;0.50;;
5912;SDS011;2982;42.684;23.356;2023-04-15T13:42:22;0.75;;;0.63;;
5912;SDS011;2982;42.684;23.356;2023-04-15T13:44:48;0.30;;;0.30;;
5912;SDS011;2982;42.684;23.356;2023-04-15T13:47:14;0.70;;;0.55;;
5912;SDS011;2982;42.684;23.356;2023-04-15T13:49:40;0.50;;;0.40;;
5912;SDS011;2982;42.684;23.356;2023-04-15T13:52:06;0.85;;;0.50;;
5912;SDS011;2982;42.684;23.356;2023-04-15T13:54:31;3.53;;;0.50;;
5912;SDS011;2982;42.684;23.356;2023-04-15T13:56:56;0.82;;;0.60;;
5912;SDS011;2982;42.684;23.356;2023-04-15T13:59:22;0.65;;;0.30;;
5912;SDS011;2982;42.684;23.356;2023-04-15T14:01:47;1.17;;;0.40;;
5912;SDS011;2982;42.684;23.356;2023-04-15T14:04:13;1.15;;;0.40;;
5912;SDS011;2982;42.684;23.356;2023-04-15T14:06:38;0.85;;;0.38;;
5912;SDS011;2982;42.684;23.356;2023-04-15T14:09:04;1.25;;;0.40;;
5912;SDS011;2982;42.684;23.356;2023-04-15T14:11:29;0.77;;;0.50;;
5912;SDS011;2982;42.684;23.356;2023-04-15T14:13:55;0.63;;;0.35;;
5912;SDS011;2982;42.684;23.356;2023-04-15T14:16:20;0.40;;;0.40;;
5912;SDS011;2982;42.684;23.356;2023-04-15T14:18:45;1.48;;;0.30;;
5912;SDS011;2982;42.684;23.356;2023-04-15T14:21:10;1.00;;;0.30;;
5912;SDS011;2982;42.684;23.356;2023-04-15T14:23:36;1.05;;;0.50;;
5912;SDS011;2982;42.684;23.356;2023-04-15T14:26:01;0.40;;;0.30;;
5912;SDS011;2982;42.684;23.356;2023-04-15T14:28:27;0.75;;;0.40;;
5912;SDS011;2982;42.684;23.356;2023-04-15T14:30:53;3.40;;;0.50;;
5912;SDS011;2982;42.684;23.356;2023-04-15T14:33:18;0.63;;;0.50;;
5912;SDS011;2982;42.684;23.356;2023-04-15T14:35:43;0.95;;;0.57;;
5912;SDS011;2982;42.684;23.356;2023-04-15T14:38:09;0.50;;;0.40;;
5912;SDS011;2982;42.684;23.356;2023-04-15T14:40:34;0.98;;;0.50;;
5912;SDS011;2982;42.684;23.356;2023-04-15T14:43:00;0.65;;;0.35;;
5912;SDS011;2982;42.684;23.356;2023-04-15T14:45:25;0.65;;;0.47;;
5912;SDS011;2982;42.684;23.356;2023-04-15T14:47:50;0.98;;;0.40;;
5912;SDS011;2982;42.684;23.356;2023-04-15T14:50:16;1.65;;;0.70;;
5912;SDS011;2982;42.684;23.356;2023-04-15T14:52:41;0.63;;;0.40;;
5912;SDS011;2982;42.684;23.356;2023-04-15T14:55:07;1.77;;;0.50;;
5912;SDS011;2982;42.684;23.356;2023-04-15T14:57:33;0.52;;;0.40;;
5912;SDS011;2982;42.684;23.356;2023-04-15T14:59:59;0.50;;;0.45;;
5912;SDS011;2982;42.684;23.356;2023-04-15T15:02:24;1.75;;;0.70;;
5912;SDS011;2982;42.684;23.356;2023-04-15T15:04:49;1.00;;;0.52;;
5912;SDS011;2982;42.684;23.356;2023-04-15T15:07:15;1.95;;;0.70;;
5912;SDS011;2982;42.684;23.356;2023-04-15T15:09:40;0.77;;;0.50;;
5912;SDS011;2982;42.684;23.356;2023-04-15T15:12:06;2.03;;;0.73;;
5912;SDS011;2982;42.684;23.356;2023-04-15T15:14:31;1.80;;;0.80;;
5912;SDS011;2982;42.684;23.356;2023-04-15T15:16:56;2.58;;;1.75;;